sensor_id;sensor_type;location;lat;lon;timestamp;P1;durP1;ratioP1;P2;durP2;ratioP2
64498;SDS011;51087;55.718;21.122;2022-12-18T00:01:35;1.48;;;0.93;;
64498;SDS011;51087;55.718;21.122;2022-12-18T00:04:03;0.85;;;0.85;;
64498;SDS011;51087;55.718;21.122;2022-12-18T00:06:29;0.73;;;0.73;;
64498;SDS011;51087;55.718;21.122;2022-12-18T00:08:58;5.25;;;2.00;;
64498;SDS011;51087;55.718;21.122;2022-12-18T00:11:25;2.22;;;0.90;;
64498;SDS011;51087;55.718;21.122;2022-12-18T00:13:53;7.28;;;2.58;;
64498;SDS011;51087;55.718;21.122;2022-12-18T00:16:20;0.95;;;0.90;;
64498;SDS011;51087;55.718;21.122;2022-12-18T00:18:48;2.63;;;1.50;;
64498;SDS011;51087;55.718;21.122;2022-12-18T00:21:15;2.25;;;1.52;;
64498;SDS011;51087;55.718;21.122;2022-12-18T00:23:41;1.83;;;1.67;;
64498;SDS011;51087;55.718;21.122;2022-12-18T00:26:10;0.80;;;0.80;;
64498;SDS011;51087;55.718;21.122;2022-12-18T00:28:37;0.13;;;0.13;;
64498;SDS011;51087;55.718;21.122;2022-12-18T00:31:07;3.80;;;0.95;;
64498;SDS011;51087;55.718;21.122;2022-12-18T00:33:35;1.25;;;0.93;;
64498;SDS011;51087;55.718;21.122;2022-12-18T00:36:01;1.00;;;0.93;;
64498;SDS011;51087;55.718;21.122;2022-12-18T00:38:30;1.35;;;0.93;;
64498;SDS011;51087;55.718;21.122;2022-12-18T00:40:56;3.58;;;2.65;;
64498;SDS011;51087;55.718;21.122;2022-12-18T00:43:21;2.60;;;1.73;;
64498;SDS011;51087;55.718;21.122;2022-12-18T00:45:46;4.78;;;2.22;;
64498;SDS011;51087;55.718;21.122;2022-12-18T00:48:12;0.40;;;0.40;;
64498;SDS011;51087;55.718;21.122;2022-12-18T00:50:38;0.57;;;0.45;;
64498;SDS011;51087;55.718;21.122;2022-12-18T00:53:03;3.50;;;1.15;;
64498;SDS011;51087;55.718;21.122;2022-12-18T00:55:29;2.38;;;1.35;;
64498;SDS011;51087;55.718;21.122;2022-12-18T00:57:55;1.70;;;1.55;;
64498;SDS011;51087;55.718;21.122;2022-12-18T01:00:20;0.88;;;0.85;;
64498;SDS011;51087;55.718;21.122;2022-12-18T01:02:45;0.88;;;0.60;;
64498;SDS011;51087;55.718;21.122;2022-12-18T01:05:11;1.60;;;1.00;;
64498;SDS011;51087;55.718;21.122;2022-12-18T01:07:37;0.68;;;0.68;;
64498;SDS011;51087;55.718;21.122;2022-12-18T01:10:03;0.65;;;0.65;;
64498;SDS011;51087;55.718;21.122;2022-12-18T01:12:29;3.38;;;0.70;;
64498;SDS011;51087;55.718;21.122;2022-12-18T01:14:55;2.28;;;1.38;;
64498;SDS011;51087;55.718;21.122;2022-12-18T01:17:20;0.68;;;0.68;;
64498;SDS011;51087;55.718;21.122;2022-12-18T01:19:46;0.20;;;0.20;;
64498;SDS011;51087;55.718;21.122;2022-12-18T01:22:11;2.97;;;0.98;;
64498;SDS011;51087;55.718;21.122;2022-12-18T01:24:37;2.42;;;1.33;;
64498;SDS011;51087;55.718;21.122;2022-12-18T01:27:02;0.25;;;0.22;;
64498;SDS011;51087;55.718;21.122;2022-12-18T01:29:28;0.15;;;0.15;;
64498;SDS011;51087;55.718;21.122;2022-12-18T01:31:55;1.10;;;0.85;;
64498;SDS011;51087;55.718;21.122;2022-12-18T01:34:21;2.35;;;1.00;;
64498;SDS011;51087;55.718;21.122;2022-12-18T01:36:47;9.73;;;2.38;;
64498;SDS011;51087;55.718;21.122;2022-12-18T01:39:13;1.52;;;0.55;;
64498;SDS011;51087;55.718;21.122;2022-12-18T01:41:39;0.77;;;0.77;;
64498;SDS011;51087;55.718;21.122;2022-12-18T01:52:55;0.32;;;0.32;;
64498;SDS011;51087;55.718;21.122;2022-12-18T01:55:26;0.63;;;0.60;;
64498;SDS011;51087;55.718;21.122;2022-12-18T01:57:55;2.38;;;0.73;;
64498;SDS011;51087;55.718;21.122;2022-12-18T02:00:22;2.60;;;1.80;;
64498;SDS011;51087;55.718;21.122;2022-12-18T02:02:49;0.55;;;0.52;;
64498;SDS011;51087;55.718;21.122;2022-12-18T02:05:16;1.35;;;0.82;;
64498;SDS011;51087;55.718;21.122;2022-12-18T02:10:32;0.20;;;0.20;;
64498;SDS011;51087;55.718;21.122;2022-12-18T02:15:36;1.10;;;0.52;;
64498;SDS011;51087;55.718;21.122;2022-12-18T02:18:18;2.40;;;1.13;;
64498;SDS011;51087;55.718;21.122;2022-12-18T02:29:13;0.00;;;0.00;;
64498;SDS011;51087;55.718;21.122;2022-12-18T02:31:44;0.52;;;0.32;;
64498;SDS011;51087;55.718;21.122;2022-12-18T02:34:14;3.92;;;1.10;;
64498;SDS011;51087;55.718;21.122;2022-12-18T02:36:41;0.10;;;0.10;;
64498;SDS011;51087;55.718;21.122;2022-12-18T02:39:09;2.90;;;2.28;;
64498;SDS011;51087;55.718;21.122;2022-12-18T02:41:36;0.63;;;0.60;;
64498;SDS011;51087;55.718;21.122;2022-12-18T02:44:07;0.45;;;0.25;;
64498;SDS011;51087;55.718;21.122;2022-12-18T02:46:37;1.67;;;1.52;;
64498;SDS011;51087;55.718;21.122;2022-12-18T02:54:22;0.50;;;0.28;;
64498;SDS011;51087;55.718;21.122;2022-12-18T02:59:50;0.22;;;0.22;;
64498;SDS011;51087;55.718;21.122;2022-12-18T03:02:37;0.15;;;0.15;;
64498;SDS011;51087;55.718;21.122;2022-12-18T03:07:46;0.93;;;0.45;;
64498;SDS011;51087;55.718;21.122;2022-12-18T03:10:16;1.58;;;0.88;;
64498;SDS011;51087;55.718;21.122;2022-12-18T03:13:20;0.13;;;0.13;;
64498;SDS011;51087;55.718;21.122;2022-12-18T03:15:50;1.00;;;0.98;;
64498;SDS011;51087;55.718;21.122;2022-12-18T03:18:25;0.20;;;0.20;;
64498;SDS011;51087;55.718;21.122;2022-12-18T03:20:55;2.63;;;1.60;;
64498;SDS011;51087;55.718;21.122;2022-12-18T03:23:25;0.77;;;0.77;;
64498;SDS011;51087;55.718;21.122;2022-12-18T03:25:56;0.65;;;0.50;;
64498;SDS011;51087;55.718;21.122;2022-12-18T03:28:24;0.50;;;0.20;;
64498;SDS011;51087;55.718;21.122;2022-12-18T03:30:56;0.88;;;0.43;;
64498;SDS011;51087;55.718;21.122;2022-12-18T03:33:31;0.00;;;0.00;;
64498;SDS011;51087;55.718;21.122;2022-12-18T03:36:03;0.88;;;0.63;;
64498;SDS011;51087;55.718;21.122;2022-12-18T03:38:29;1.45;;;0.65;;
64498;SDS011;51087;55.718;21.122;2022-12-18T03:43:55;0.73;;;0.73;;
64498;SDS011;51087;55.718;21.122;2022-12-18T03:47:01;0.75;;;0.68;;
64498;SDS011;51087;55.718;21.122;2022-12-18T03:55:03;0.73;;;0.57;;
64498;SDS011;51087;55.718;21.122;2022-12-18T03:57:30;0.13;;;0.13;;
64498;SDS011;51087;55.718;21.122;2022-12-18T03:59:58;0.50;;;0.50;;
64498;SDS011;51087;55.718;21.122;2022-12-18T04:02:30;0.22;;;0.20;;
64498;SDS011;51087;55.718;21.122;2022-12-18T04:04:58;4.38;;;0.35;;
64498;SDS011;51087;55.718;21.122;2022-12-18T04:07:27;0.10;;;0.10;;
64498;SDS011;51087;55.718;21.122;2022-12-18T04:09:53;1.00;;;0.45;;
64498;SDS011;51087;55.718;21.122;2022-12-18T04:12:23;0.17;;;0.17;;
64498;SDS011;51087;55.718;21.122;2022-12-18T04:14:51;0.10;;;0.10;;
64498;SDS011;51087;55.718;21.122;2022-12-18T04:17:16;0.10;;;0.10;;
64498;SDS011;51087;55.718;21.122;2022-12-18T04:19:41;0.28;;;0.20;;
64498;SDS011;51087;55.718;21.122;2022-12-18T04:22:08;0.98;;;0.45;;
64498;SDS011;51087;55.718;21.122;2022-12-18T04:24:35;1.25;;;0.65;;
64498;SDS011;51087;55.718;21.122;2022-12-18T04:27:00;0.45;;;0.45;;
64498;SDS011;51087;55.718;21.122;2022-12-18T04:29:26;0.45;;;0.45;;
64498;SDS011;51087;55.718;21.122;2022-12-18T04:31:51;1.15;;;0.75;;
64498;SDS011;51087;55.718;21.122;2022-12-18T04:34:17;0.35;;;0.35;;
64498;SDS011;51087;55.718;21.122;2022-12-18T04:36:42;0.50;;;0.40;;
64498;SDS011;51087;55.718;21.122;2022-12-18T04:39:07;0.75;;;0.63;;
64498;SDS011;51087;55.718;21.122;2022-12-18T04:41:33;0.25;;;0.25;;
64498;SDS011;51087;55.718;21.122;2022-12-18T04:43:58;0.28;;;0.28;;
64498;SDS011;51087;55.718;21.122;2022-12-18T04:46:24;0.05;;;0.05;;
64498;SDS011;51087;55.718;21.122;2022-12-18T04:48:49;0.00;;;0.00;;
64498;SDS011;51087;55.718;21.122;2022-12-18T04:51:14;0.08;;;0.08;;
64498;SDS011;51087;55.718;21.122;2022-12-18T04:53:40;0.98;;;0.88;;
64498;SDS011;51087;55.718;21.122;2022-12-18T04:56:09;1.73;;;1.15;;
64498;SDS011;51087;55.718;21.122;2022-12-18T04:58:37;1.75;;;0.93;;
64498;SDS011;51087;55.718;21.122;2022-12-18T05:01:04;0.22;;;0.22;;
64498;SDS011;51087;55.718;21.122;2022-12-18T05:03:30;2.15;;;1.05;;
64498;SDS011;51087;55.718;21.122;2022-12-18T05:05:56;0.93;;;0.35;;
64498;SDS011;51087;55.718;21.122;2022-12-18T05:08:22;1.05;;;0.95;;
64498;SDS011;51087;55.718;21.122;2022-12-18T05:10:48;0.20;;;0.20;;
64498;SDS011;51087;55.718;21.122;2022-12-18T05:13:13;0.47;;;0.45;;
64498;SDS011;51087;55.718;21.122;2022-12-18T05:15:39;0.38;;;0.38;;
64498;SDS011;51087;55.718;21.122;2022-12-18T05:18:04;0.20;;;0.20;;
64498;SDS011;51087;55.718;21.122;2022-12-18T05:20:30;0.13;;;0.13;;
64498;SDS011;51087;55.718;21.122;2022-12-18T05:22:56;0.43;;;0.40;;
64498;SDS011;51087;55.718;21.122;2022-12-18T05:25:22;5.75;;;0.70;;
64498;SDS011;51087;55.718;21.122;2022-12-18T05:27:48;1.92;;;1.13;;
64498;SDS011;51087;55.718;21.122;2022-12-18T05:30:14;0.30;;;0.30;;
64498;SDS011;51087;55.718;21.122;2022-12-18T05:32:40;1.48;;;0.47;;
64498;SDS011;51087;55.718;21.122;2022-12-18T05:35:07;0.45;;;0.35;;
64498;SDS011;51087;55.718;21.122;2022-12-18T05:37:34;0.70;;;0.70;;
64498;SDS011;51087;55.718;21.122;2022-12-18T05:40:00;1.05;;;0.85;;
64498;SDS011;51087;55.718;21.122;2022-12-18T05:42:26;5.53;;;1.80;;
64498;SDS011;51087;55.718;21.122;2022-12-18T05:44:51;0.63;;;0.63;;
64498;SDS011;51087;55.718;21.122;2022-12-18T05:47:17;0.00;;;0.00;;
64498;SDS011;51087;55.718;21.122;2022-12-18T05:49:42;0.40;;;0.15;;
64498;SDS011;51087;55.718;21.122;2022-12-18T05:52:08;2.50;;;0.75;;
64498;SDS011;51087;55.718;21.122;2022-12-18T05:54:33;0.05;;;0.05;;
64498;SDS011;51087;55.718;21.122;2022-12-18T05:56:59;3.67;;;0.88;;
64498;SDS011;51087;55.718;21.122;2022-12-18T05:59:24;0.57;;;0.57;;
64498;SDS011;51087;55.718;21.122;2022-12-18T06:01:50;0.80;;;0.68;;
64498;SDS011;51087;55.718;21.122;2022-12-18T06:04:16;0.25;;;0.25;;
64498;SDS011;51087;55.718;21.122;2022-12-18T06:06:41;3.42;;;0.85;;
64498;SDS011;51087;55.718;21.122;2022-12-18T06:09:07;0.08;;;0.08;;
64498;SDS011;51087;55.718;21.122;2022-12-18T06:11:35;6.63;;;1.13;;
64498;SDS011;51087;55.718;21.122;2022-12-18T06:14:01;0.70;;;0.60;;
64498;SDS011;51087;55.718;21.122;2022-12-18T06:16:27;1.30;;;1.20;;
64498;SDS011;51087;55.718;21.122;2022-12-18T06:18:55;2.92;;;1.05;;
64498;SDS011;51087;55.718;21.122;2022-12-18T06:21:24;2.20;;;2.00;;
64498;SDS011;51087;55.718;21.122;2022-12-18T06:23:50;1.20;;;0.63;;
64498;SDS011;51087;55.718;21.122;2022-12-18T06:26:15;3.50;;;1.98;;
64498;SDS011;51087;55.718;21.122;2022-12-18T06:28:40;1.50;;;1.40;;
64498;SDS011;51087;55.718;21.122;2022-12-18T06:31:06;1.30;;;0.55;;
64498;SDS011;51087;55.718;21.122;2022-12-18T06:33:32;1.58;;;1.40;;
64498;SDS011;51087;55.718;21.122;2022-12-18T06:36:16;3.88;;;3.30;;
64498;SDS011;51087;55.718;21.122;2022-12-18T06:38:42;2.05;;;1.60;;
64498;SDS011;51087;55.718;21.122;2022-12-18T06:41:10;2.25;;;1.05;;
64498;SDS011;51087;55.718;21.122;2022-12-18T06:43:37;1.50;;;1.38;;
64498;SDS011;51087;55.718;21.122;2022-12-18T06:46:03;1.17;;;0.95;;
64498;SDS011;51087;55.718;21.122;2022-12-18T06:48:29;1.00;;;0.80;;
64498;SDS011;51087;55.718;21.122;2022-12-18T06:50:55;2.65;;;1.63;;
64498;SDS011;51087;55.718;21.122;2022-12-18T06:53:20;1.45;;;1.02;;
64498;SDS011;51087;55.718;21.122;2022-12-18T06:55:46;1.02;;;0.90;;
64498;SDS011;51087;55.718;21.122;2022-12-18T06:58:11;1.50;;;0.93;;
64498;SDS011;51087;55.718;21.122;2022-12-18T07:00:37;1.60;;;1.17;;
64498;SDS011;51087;55.718;21.122;2022-12-18T07:03:02;1.08;;;1.00;;
64498;SDS011;51087;55.718;21.122;2022-12-18T07:05:28;1.45;;;1.13;;
64498;SDS011;51087;55.718;21.122;2022-12-18T07:07:53;1.52;;;1.15;;
64498;SDS011;51087;55.718;21.122;2022-12-18T07:10:19;1.55;;;1.02;;
64498;SDS011;51087;55.718;21.122;2022-12-18T07:12:44;2.97;;;1.83;;
64498;SDS011;51087;55.718;21.122;2022-12-18T07:15:10;2.75;;;1.63;;
64498;SDS011;51087;55.718;21.122;2022-12-18T07:17:35;2.47;;;1.27;;
64498;SDS011;51087;55.718;21.122;2022-12-18T07:20:01;0.95;;;0.95;;
64498;SDS011;51087;55.718;21.122;2022-12-18T07:22:26;1.80;;;0.85;;
64498;SDS011;51087;55.718;21.122;2022-12-18T07:24:52;2.55;;;1.40;;
64498;SDS011;51087;55.718;21.122;2022-12-18T07:27:17;1.98;;;1.77;;
64498;SDS011;51087;55.718;21.122;2022-12-18T07:29:43;1.58;;;1.48;;
64498;SDS011;51087;55.718;21.122;2022-12-18T07:32:08;1.05;;;0.95;;
64498;SDS011;51087;55.718;21.122;2022-12-18T07:34:34;1.30;;;0.95;;
64498;SDS011;51087;55.718;21.122;2022-12-18T07:36:59;7.53;;;2.67;;
64498;SDS011;51087;55.718;21.122;2022-12-18T07:39:25;4.35;;;2.58;;
64498;SDS011;51087;55.718;21.122;2022-12-18T07:41:50;2.95;;;1.38;;
64498;SDS011;51087;55.718;21.122;2022-12-18T07:44:34;1.25;;;1.15;;
64498;SDS011;51087;55.718;21.122;2022-12-18T07:47:00;2.83;;;1.60;;
64498;SDS011;51087;55.718;21.122;2022-12-18T07:49:25;1.23;;;1.05;;
64498;SDS011;51087;55.718;21.122;2022-12-18T07:51:51;0.73;;;0.40;;
64498;SDS011;51087;55.718;21.122;2022-12-18T07:54:16;1.98;;;1.60;;
64498;SDS011;51087;55.718;21.122;2022-12-18T07:56:41;1.67;;;0.65;;
64498;SDS011;51087;55.718;21.122;2022-12-18T07:59:07;1.48;;;0.88;;
64498;SDS011;51087;55.718;21.122;2022-12-18T08:01:32;2.35;;;1.33;;
64498;SDS011;51087;55.718;21.122;2022-12-18T08:03:58;1.92;;;1.55;;
64498;SDS011;51087;55.718;21.122;2022-12-18T08:06:23;12.07;;;3.20;;
64498;SDS011;51087;55.718;21.122;2022-12-18T08:08:50;1.00;;;0.90;;
64498;SDS011;51087;55.718;21.122;2022-12-18T08:11:19;1.65;;;1.08;;
64498;SDS011;51087;55.718;21.122;2022-12-18T08:13:44;1.25;;;0.90;;
64498;SDS011;51087;55.718;21.122;2022-12-18T08:16:10;3.00;;;1.88;;
64498;SDS011;51087;55.718;21.122;2022-12-18T08:18:36;1.98;;;1.35;;
64498;SDS011;51087;55.718;21.122;2022-12-18T08:23:34;0.82;;;0.82;;
64498;SDS011;51087;55.718;21.122;2022-12-18T08:26:00;1.40;;;1.30;;
64498;SDS011;51087;55.718;21.122;2022-12-18T08:28:26;0.90;;;0.88;;
64498;SDS011;51087;55.718;21.122;2022-12-18T08:30:52;1.70;;;1.17;;
64498;SDS011;51087;55.718;21.122;2022-12-18T08:33:17;3.50;;;1.67;;
64498;SDS011;51087;55.718;21.122;2022-12-18T08:35:42;2.25;;;1.27;;
64498;SDS011;51087;55.718;21.122;2022-12-18T08:38:08;1.65;;;0.70;;
64498;SDS011;51087;55.718;21.122;2022-12-18T08:40:33;3.60;;;1.85;;
64498;SDS011;51087;55.718;21.122;2022-12-18T08:42:59;4.10;;;1.95;;
64498;SDS011;51087;55.718;21.122;2022-12-18T08:45:43;2.83;;;1.77;;
64498;SDS011;51087;55.718;21.122;2022-12-18T08:48:09;0.70;;;0.70;;
64498;SDS011;51087;55.718;21.122;2022-12-18T08:50:34;3.92;;;2.00;;
64498;SDS011;51087;55.718;21.122;2022-12-18T08:53:00;1.70;;;1.13;;
64498;SDS011;51087;55.718;21.122;2022-12-18T08:55:25;1.75;;;1.52;;
64498;SDS011;51087;55.718;21.122;2022-12-18T08:57:51;1.05;;;0.85;;
64498;SDS011;51087;55.718;21.122;2022-12-18T09:00:16;1.25;;;1.15;;
64498;SDS011;51087;55.718;21.122;2022-12-18T09:02:42;1.10;;;1.08;;
64498;SDS011;51087;55.718;21.122;2022-12-18T09:05:07;1.30;;;1.17;;
64498;SDS011;51087;55.718;21.122;2022-12-18T09:07:33;2.58;;;1.65;;
64498;SDS011;51087;55.718;21.122;2022-12-18T09:09:59;4.88;;;1.00;;
64498;SDS011;51087;55.718;21.122;2022-12-18T09:12:24;2.50;;;0.98;;
64498;SDS011;51087;55.718;21.122;2022-12-18T09:14:50;1.95;;;0.88;;
64498;SDS011;51087;55.718;21.122;2022-12-18T09:17:15;0.60;;;0.52;;
64498;SDS011;51087;55.718;21.122;2022-12-18T09:19:41;2.20;;;1.05;;
64498;SDS011;51087;55.718;21.122;2022-12-18T09:22:06;1.45;;;1.35;;
64498;SDS011;51087;55.718;21.122;2022-12-18T09:24:32;3.42;;;2.58;;
64498;SDS011;51087;55.718;21.122;2022-12-18T09:26:57;1.00;;;0.88;;
64498;SDS011;51087;55.718;21.122;2022-12-18T09:29:23;2.10;;;1.20;;
64498;SDS011;51087;55.718;21.122;2022-12-18T09:31:49;2.17;;;1.33;;
64498;SDS011;51087;55.718;21.122;2022-12-18T09:34:15;4.07;;;2.28;;
64498;SDS011;51087;55.718;21.122;2022-12-18T09:36:41;1.80;;;1.65;;
64498;SDS011;51087;55.718;21.122;2022-12-18T09:39:07;0.75;;;0.75;;
64498;SDS011;51087;55.718;21.122;2022-12-18T09:49:30;1.70;;;1.55;;
64498;SDS011;51087;55.718;21.122;2022-12-18T09:54:52;10.10;;;2.67;;
64498;SDS011;51087;55.718;21.122;2022-12-18T09:57:21;3.67;;;2.47;;
64498;SDS011;51087;55.718;21.122;2022-12-18T09:59:50;9.60;;;2.97;;
64498;SDS011;51087;55.718;21.122;2022-12-18T10:02:24;10.25;;;4.53;;
64498;SDS011;51087;55.718;21.122;2022-12-18T10:08:05;2.92;;;1.55;;
64498;SDS011;51087;55.718;21.122;2022-12-18T10:10:46;2.58;;;2.10;;
64498;SDS011;51087;55.718;21.122;2022-12-18T10:15:54;4.03;;;2.20;;
64498;SDS011;51087;55.718;21.122;2022-12-18T10:18:37;1.90;;;0.95;;
64498;SDS011;51087;55.718;21.122;2022-12-18T10:21:28;0.57;;;0.52;;
64498;SDS011;51087;55.718;21.122;2022-12-18T10:26:47;4.43;;;2.58;;
64498;SDS011;51087;55.718;21.122;2022-12-18T10:29:14;10.18;;;4.38;;
64498;SDS011;51087;55.718;21.122;2022-12-18T10:31:40;15.48;;;3.30;;
64498;SDS011;51087;55.718;21.122;2022-12-18T10:34:10;9.88;;;4.65;;
64498;SDS011;51087;55.718;21.122;2022-12-18T10:36:36;11.85;;;4.28;;
64498;SDS011;51087;55.718;21.122;2022-12-18T10:39:19;13.75;;;4.72;;
64498;SDS011;51087;55.718;21.122;2022-12-18T10:41:47;15.98;;;4.78;;
64498;SDS011;51087;55.718;21.122;2022-12-18T10:44:16;13.82;;;4.75;;
64498;SDS011;51087;55.718;21.122;2022-12-18T10:46:44;7.72;;;3.42;;
64498;SDS011;51087;55.718;21.122;2022-12-18T10:49:27;9.27;;;4.18;;
64498;SDS011;51087;55.718;21.122;2022-12-18T10:52:30;9.35;;;4.03;;
64498;SDS011;51087;55.718;21.122;2022-12-18T10:54:54;5.40;;;2.50;;
64498;SDS011;51087;55.718;21.122;2022-12-18T10:59:56;5.60;;;1.88;;
64498;SDS011;51087;55.718;21.122;2022-12-18T11:02:36;3.22;;;1.73;;
64498;SDS011;51087;55.718;21.122;2022-12-18T11:05:04;9.63;;;4.05;;
64498;SDS011;51087;55.718;21.122;2022-12-18T11:07:58;6.03;;;2.25;;
64498;SDS011;51087;55.718;21.122;2022-12-18T11:10:26;8.50;;;2.65;;
64498;SDS011;51087;55.718;21.122;2022-12-18T11:12:55;2.55;;;1.55;;
64498;SDS011;51087;55.718;21.122;2022-12-18T11:15:23;10.27;;;2.42;;
64498;SDS011;51087;55.718;21.122;2022-12-18T11:17:52;3.70;;;2.22;;
64498;SDS011;51087;55.718;21.122;2022-12-18T11:20:36;5.72;;;2.10;;
64498;SDS011;51087;55.718;21.122;2022-12-18T11:23:06;5.60;;;1.70;;
64498;SDS011;51087;55.718;21.122;2022-12-18T11:25:37;5.15;;;2.60;;
64498;SDS011;51087;55.718;21.122;2022-12-18T11:28:04;4.15;;;1.90;;
64498;SDS011;51087;55.718;21.122;2022-12-18T11:31:08;3.95;;;2.30;;
64498;SDS011;51087;55.718;21.122;2022-12-18T11:33:34;6.22;;;2.25;;
64498;SDS011;51087;55.718;21.122;2022-12-18T11:36:01;5.53;;;2.35;;
64498;SDS011;51087;55.718;21.122;2022-12-18T11:38:32;11.27;;;3.00;;
64498;SDS011;51087;55.718;21.122;2022-12-18T11:41:05;4.57;;;1.90;;
64498;SDS011;51087;55.718;21.122;2022-12-18T11:43:43;6.30;;;2.05;;
64498;SDS011;51087;55.718;21.122;2022-12-18T11:46:18;5.57;;;2.53;;
64498;SDS011;51087;55.718;21.122;2022-12-18T11:49:34;4.80;;;2.13;;
64498;SDS011;51087;55.718;21.122;2022-12-18T11:51:51;8.48;;;3.05;;
64498;SDS011;51087;55.718;21.122;2022-12-18T11:54:41;2.85;;;1.65;;
64498;SDS011;51087;55.718;21.122;2022-12-18T12:02:47;10.02;;;4.00;;
64498;SDS011;51087;55.718;21.122;2022-12-18T12:05:50;7.43;;;2.85;;
64498;SDS011;51087;55.718;21.122;2022-12-18T12:16:37;2.78;;;1.42;;
64498;SDS011;51087;55.718;21.122;2022-12-18T12:27:10;3.53;;;1.80;;
64498;SDS011;51087;55.718;21.122;2022-12-18T12:35:32;4.57;;;2.17;;
64498;SDS011;51087;55.718;21.122;2022-12-18T12:41:13;8.73;;;2.58;;
64498;SDS011;51087;55.718;21.122;2022-12-18T12:43:58;11.20;;;3.90;;
64498;SDS011;51087;55.718;21.122;2022-12-18T12:46:27;8.07;;;4.18;;
64498;SDS011;51087;55.718;21.122;2022-12-18T12:48:58;7.18;;;2.35;;
64498;SDS011;51087;55.718;21.122;2022-12-18T12:51:31;5.75;;;2.70;;
64498;SDS011;51087;55.718;21.122;2022-12-18T12:54:00;7.07;;;2.15;;
64498;SDS011;51087;55.718;21.122;2022-12-18T12:56:36;6.82;;;1.92;;
64498;SDS011;51087;55.718;21.122;2022-12-18T13:07:04;6.03;;;2.03;;
64498;SDS011;51087;55.718;21.122;2022-12-18T13:10:10;5.68;;;2.03;;
64498;SDS011;51087;55.718;21.122;2022-12-18T13:12:56;5.55;;;2.13;;
64498;SDS011;51087;55.718;21.122;2022-12-18T13:21:14;5.18;;;1.73;;
64498;SDS011;51087;55.718;21.122;2022-12-18T13:25:53;5.00;;;2.05;;
64498;SDS011;51087;55.718;21.122;2022-12-18T13:29:05;3.95;;;1.65;;
64498;SDS011;51087;55.718;21.122;2022-12-18T13:31:15;5.80;;;2.28;;
64498;SDS011;51087;55.718;21.122;2022-12-18T13:34:18;3.25;;;0.98;;
64498;SDS011;51087;55.718;21.122;2022-12-18T13:36:44;6.25;;;1.90;;
64498;SDS011;51087;55.718;21.122;2022-12-18T13:41:38;11.85;;;1.73;;
64498;SDS011;51087;55.718;21.122;2022-12-18T13:44:22;3.13;;;1.20;;
64498;SDS011;51087;55.718;21.122;2022-12-18T13:47:03;3.60;;;1.50;;
64498;SDS011;51087;55.718;21.122;2022-12-18T13:51:57;5.28;;;1.45;;
64498;SDS011;51087;55.718;21.122;2022-12-18T13:54:30;4.70;;;1.90;;
64498;SDS011;51087;55.718;21.122;2022-12-18T13:56:59;10.18;;;3.08;;
64498;SDS011;51087;55.718;21.122;2022-12-18T13:59:26;5.35;;;2.50;;
64498;SDS011;51087;55.718;21.122;2022-12-18T14:04:36;4.40;;;2.47;;
64498;SDS011;51087;55.718;21.122;2022-12-18T14:07:21;4.63;;;1.70;;
64498;SDS011;51087;55.718;21.122;2022-12-18T14:10:00;3.70;;;1.63;;
64498;SDS011;51087;55.718;21.122;2022-12-18T14:12:33;3.03;;;1.50;;
64498;SDS011;51087;55.718;21.122;2022-12-18T14:17:49;6.43;;;2.72;;
64498;SDS011;51087;55.718;21.122;2022-12-18T14:20:15;4.82;;;2.53;;
64498;SDS011;51087;55.718;21.122;2022-12-18T14:22:43;10.20;;;3.22;;
64498;SDS011;51087;55.718;21.122;2022-12-18T14:25:25;4.50;;;2.08;;
64498;SDS011;51087;55.718;21.122;2022-12-18T14:30:35;7.53;;;3.50;;
64498;SDS011;51087;55.718;21.122;2022-12-18T14:33:20;7.97;;;3.58;;
64498;SDS011;51087;55.718;21.122;2022-12-18T14:38:33;8.18;;;3.80;;
64498;SDS011;51087;55.718;21.122;2022-12-18T14:41:01;8.13;;;4.40;;
64498;SDS011;51087;55.718;21.122;2022-12-18T14:43:29;10.48;;;4.20;;
64498;SDS011;51087;55.718;21.122;2022-12-18T14:46:00;8.35;;;4.15;;
64498;SDS011;51087;55.718;21.122;2022-12-18T14:48:37;11.20;;;4.05;;
64498;SDS011;51087;55.718;21.122;2022-12-18T14:51:06;5.03;;;2.38;;
64498;SDS011;51087;55.718;21.122;2022-12-18T14:53:43;10.05;;;2.67;;
64498;SDS011;51087;55.718;21.122;2022-12-18T14:58:49;10.52;;;3.35;;
64498;SDS011;51087;55.718;21.122;2022-12-18T15:01:22;8.13;;;1.77;;
64498;SDS011;51087;55.718;21.122;2022-12-18T15:03:51;5.35;;;2.30;;
64498;SDS011;51087;55.718;21.122;2022-12-18T15:06:21;9.48;;;3.63;;
64498;SDS011;51087;55.718;21.122;2022-12-18T15:11:33;5.78;;;3.05;;
64498;SDS011;51087;55.718;21.122;2022-12-18T15:14:21;5.22;;;2.30;;
64498;SDS011;51087;55.718;21.122;2022-12-18T15:16:56;3.90;;;2.00;;
64498;SDS011;51087;55.718;21.122;2022-12-18T15:19:26;5.85;;;3.20;;
64498;SDS011;51087;55.718;21.122;2022-12-18T15:25:23;4.13;;;1.95;;
64498;SDS011;51087;55.718;21.122;2022-12-18T15:27:56;9.15;;;3.42;;
64498;SDS011;51087;55.718;21.122;2022-12-18T15:30:22;5.65;;;3.28;;
64498;SDS011;51087;55.718;21.122;2022-12-18T15:32:50;12.00;;;4.32;;
64498;SDS011;51087;55.718;21.122;2022-12-18T15:35:23;8.35;;;3.40;;
64498;SDS011;51087;55.718;21.122;2022-12-18T15:37:50;6.63;;;1.77;;
64498;SDS011;51087;55.718;21.122;2022-12-18T15:40:17;4.57;;;2.55;;
64498;SDS011;51087;55.718;21.122;2022-12-18T15:42:47;5.60;;;2.78;;
64498;SDS011;51087;55.718;21.122;2022-12-18T15:45:32;3.60;;;1.77;;
64498;SDS011;51087;55.718;21.122;2022-12-18T15:47:58;9.30;;;3.30;;
64498;SDS011;51087;55.718;21.122;2022-12-18T15:50:24;11.25;;;3.42;;
64498;SDS011;51087;55.718;21.122;2022-12-18T15:52:51;7.97;;;2.83;;
64498;SDS011;51087;55.718;21.122;2022-12-18T15:55:22;5.65;;;2.75;;
64498;SDS011;51087;55.718;21.122;2022-12-18T15:58:08;6.35;;;2.67;;
64498;SDS011;51087;55.718;21.122;2022-12-18T16:00:36;6.15;;;2.53;;
64498;SDS011;51087;55.718;21.122;2022-12-18T16:03:04;7.53;;;2.95;;
64498;SDS011;51087;55.718;21.122;2022-12-18T16:05:30;5.82;;;2.35;;
64498;SDS011;51087;55.718;21.122;2022-12-18T16:07:56;3.25;;;1.77;;
64498;SDS011;51087;55.718;21.122;2022-12-18T16:10:22;9.00;;;3.45;;
64498;SDS011;51087;55.718;21.122;2022-12-18T16:12:48;4.78;;;2.15;;
64498;SDS011;51087;55.718;21.122;2022-12-18T16:15:14;6.95;;;2.83;;
64498;SDS011;51087;55.718;21.122;2022-12-18T16:17:41;4.45;;;2.00;;
64498;SDS011;51087;55.718;21.122;2022-12-18T16:20:14;2.10;;;1.27;;
64498;SDS011;51087;55.718;21.122;2022-12-18T16:22:42;23.92;;;10.52;;
64498;SDS011;51087;55.718;21.122;2022-12-18T16:25:24;11.73;;;4.78;;
64498;SDS011;51087;55.718;21.122;2022-12-18T16:27:52;12.00;;;3.45;;
64498;SDS011;51087;55.718;21.122;2022-12-18T16:30:21;10.07;;;3.58;;
64498;SDS011;51087;55.718;21.122;2022-12-18T16:32:51;22.52;;;6.97;;
64498;SDS011;51087;55.718;21.122;2022-12-18T16:35:16;7.22;;;2.92;;
64498;SDS011;51087;55.718;21.122;2022-12-18T16:37:42;7.50;;;3.28;;
64498;SDS011;51087;55.718;21.122;2022-12-18T16:40:09;15.52;;;4.60;;
64498;SDS011;51087;55.718;21.122;2022-12-18T16:42:37;4.75;;;2.08;;
64498;SDS011;51087;55.718;21.122;2022-12-18T16:45:04;8.65;;;3.55;;
64498;SDS011;51087;55.718;21.122;2022-12-18T16:47:31;3.50;;;1.95;;
64498;SDS011;51087;55.718;21.122;2022-12-18T16:49:57;10.52;;;3.55;;
64498;SDS011;51087;55.718;21.122;2022-12-18T16:52:22;5.75;;;3.22;;
64498;SDS011;51087;55.718;21.122;2022-12-18T16:54:48;5.57;;;2.40;;
64498;SDS011;51087;55.718;21.122;2022-12-18T16:57:14;7.93;;;3.15;;
64498;SDS011;51087;55.718;21.122;2022-12-18T16:59:41;10.05;;;3.30;;
64498;SDS011;51087;55.718;21.122;2022-12-18T17:02:13;6.68;;;3.22;;
64498;SDS011;51087;55.718;21.122;2022-12-18T17:04:40;5.25;;;2.38;;